createdAt,value
2022-09-20T00:01:22.483Z,4.60
2022-09-20T00:03:53.333Z,5.30
2022-09-20T00:06:25.649Z,4.95
2022-09-20T00:08:52.935Z,5.03
2022-09-20T00:11:26.000Z,3.17
2022-09-20T00:13:56.103Z,2.60
2022-09-20T00:16:35.595Z,5.55
2022-09-20T00:19:04.090Z,6.30
2022-09-20T00:21:33.002Z,3.33
2022-09-20T00:24:00.729Z,6.60
2022-09-20T00:26:28.711Z,3.33
2022-09-20T00:28:57.037Z,9.85
2022-09-20T00:31:24.207Z,2.00
2022-09-20T00:34:13.656Z,4.65
2022-09-20T00:36:40.841Z,3.58
2022-09-20T00:39:09.487Z,3.45
2022-09-20T00:41:36.632Z,2.75
2022-09-20T00:44:23.868Z,2.25
2022-09-20T00:46:51.037Z,3.13
2022-09-20T00:49:25.374Z,1.58
2022-09-20T00:51:56.118Z,1.55
2022-09-20T00:54:24.580Z,4.10
2022-09-20T00:56:52.361Z,6.00
2022-09-20T00:59:27.408Z,3.20
2022-09-20T01:01:58.887Z,3.58
2022-09-20T01:04:27.770Z,5.18
2022-09-20T01:06:58.240Z,3.28
2022-09-20T01:09:25.436Z,2.92
2022-09-20T01:11:55.806Z,3.17
2022-09-20T01:14:23.703Z,8.77
2022-09-20T01:16:52.917Z,4.47
2022-09-20T01:19:48.964Z,7.72
2022-09-20T01:22:42.172Z,4.85
2022-09-20T01:25:26.428Z,4.38
2022-09-20T01:27:54.823Z,4.00
2022-09-20T01:30:25.196Z,2.88
2022-09-20T01:33:25.850Z,5.80
2022-09-20T01:35:54.556Z,10.18
2022-09-20T01:38:43.416Z,5.57
2022-09-20T01:41:28.627Z,5.20
2022-09-20T01:44:06.214Z,6.75
2022-09-20T01:46:35.054Z,4.18
2022-09-20T01:49:08.075Z,4.50
2022-09-20T01:52:12.818Z,1.85
2022-09-20T01:55:07.791Z,9.93
2022-09-20T01:57:58.204Z,7.82
2022-09-20T02:00:31.055Z,3.00
2022-09-20T02:03:21.833Z,4.93
2022-09-20T02:06:10.912Z,4.30
2022-09-20T02:09:09.427Z,6.93
2022-09-20T02:12:08.313Z,6.38
2022-09-20T02:15:14.595Z,4.90
2022-09-20T02:17:55.438Z,9.00
2022-09-20T02:21:05.277Z,7.57
2022-09-20T02:24:07.881Z,3.83
2022-09-20T02:26:50.970Z,4.65
2022-09-20T02:29:49.526Z,6.93
2022-09-20T02:32:54.623Z,4.10
2022-09-20T02:35:34.237Z,5.25
2022-09-20T02:38:42.456Z,4.47
2022-09-20T02:41:25.362Z,3.72
2022-09-20T02:44:10.173Z,6.97
2022-09-20T02:46:53.385Z,4.20
2022-09-20T02:50:14.486Z,7.10
2022-09-20T02:52:51.514Z,6.38
2022-09-20T02:55:32.422Z,2.47
2022-09-20T02:58:24.652Z,7.10
2022-09-20T03:00:56.887Z,4.68
2022-09-20T03:03:51.561Z,8.55
2022-09-20T03:06:31.872Z,7.70
2022-09-20T03:09:06.984Z,9.13
2022-09-20T03:11:44.299Z,9.65
2022-09-20T03:14:17.819Z,9.43
2022-09-20T03:16:53.747Z,7.43
2022-09-20T03:19:33.610Z,7.55
2022-09-20T03:22:19.756Z,6.43
2022-09-20T03:25:08.968Z,10.20
2022-09-20T03:30:27.083Z,9.55
2022-09-20T03:33:26.694Z,5.93
2022-09-20T03:36:36.853Z,7.68
2022-09-20T03:39:22.293Z,6.95
2022-09-20T03:41:57.557Z,10.73
2022-09-20T03:45:02.245Z,6.88
2022-09-20T03:48:09.578Z,12.60
2022-09-20T03:50:51.866Z,7.10
2022-09-20T03:53:47.721Z,9.80
2022-09-20T03:56:21.031Z,7.32
2022-09-20T03:58:53.408Z,12.00
2022-09-20T04:01:45.317Z,4.35
2022-09-20T04:04:33.391Z,9.07
2022-09-20T04:07:23.830Z,6.50
2022-09-20T04:10:03.957Z,8.98
2022-09-20T04:13:12.561Z,9.88
2022-09-20T04:16:09.069Z,10.73
2022-09-20T04:18:45.281Z,5.20
2022-09-20T04:21:29.193Z,9.90
2022-09-20T04:24:02.792Z,7.40
2022-09-20T04:26:32.335Z,8.40
2022-09-20T04:29:08.697Z,5.75
2022-09-20T04:32:00.226Z,5.13
2022-09-20T04:34:51.572Z,5.63
2022-09-20T04:37:33.552Z,10.23
2022-09-20T04:40:51.654Z,8.05
2022-09-20T04:43:51.093Z,11.43
2022-09-20T04:46:35.809Z,7.68
2022-09-20T04:49:23.097Z,5.88
2022-09-20T04:52:29.484Z,7.13
2022-09-20T04:55:35.610Z,6.45
2022-09-20T04:58:42.157Z,11.52
2022-09-20T05:01:32.387Z,8.65
2022-09-20T05:04:27.627Z,15.10
2022-09-20T05:07:23.687Z,6.93
2022-09-20T05:10:09.468Z,14.48
2022-09-20T05:13:05.273Z,8.77
2022-09-20T05:15:49.657Z,9.95
2022-09-20T05:18:51.219Z,8.50
2022-09-20T05:21:34.530Z,8.45
2022-09-20T05:24:32.035Z,9.68
2022-09-20T05:27:04.220Z,9.80
2022-09-20T05:29:43.628Z,8.60
2022-09-20T05:32:28.100Z,7.43
2022-09-20T05:35:00.298Z,8.30
2022-09-20T05:38:06.369Z,9.88
2022-09-20T05:41:08.268Z,12.52
2022-09-20T05:44:00.532Z,7.03
2022-09-20T05:46:33.132Z,12.98
2022-09-20T05:49:41.860Z,9.40
2022-09-20T05:52:32.640Z,5.60
2022-09-20T05:55:18.099Z,6.50
2022-09-20T05:58:04.218Z,13.80
2022-09-20T06:00:52.957Z,7.78
2022-09-20T06:03:39.399Z,10.05
2022-09-20T06:06:31.720Z,16.58
2022-09-20T06:09:43.942Z,15.35
2022-09-20T06:12:38.582Z,10.63
2022-09-20T06:15:29.104Z,7.38
2022-09-20T06:18:10.008Z,13.75
2022-09-20T06:20:52.702Z,8.50
2022-09-20T06:23:21.421Z,8.93
2022-09-20T06:26:08.024Z,16.08
2022-09-20T06:28:48.460Z,20.13
2022-09-20T06:31:17.950Z,12.23
2022-09-20T06:34:00.876Z,14.73
2022-09-20T06:36:53.295Z,9.52
2022-09-20T06:40:03.060Z,12.10
2022-09-20T06:42:31.119Z,7.07
2022-09-20T06:44:58.514Z,12.82
2022-09-20T06:47:27.052Z,14.30
2022-09-20T06:49:54.427Z,8.38
2022-09-20T06:52:22.995Z,11.73
2022-09-20T06:54:53.976Z,9.40
2022-09-20T06:57:38.102Z,10.02
2022-09-20T07:00:11.798Z,14.95
2022-09-20T07:02:39.267Z,11.02
2022-09-20T07:05:07.689Z,11.38
2022-09-20T07:07:35.133Z,15.37
2022-09-20T07:10:02.554Z,13.52
2022-09-20T07:12:33.692Z,14.82
2022-09-20T07:15:03.691Z,12.10
2022-09-20T07:17:30.957Z,14.38
2022-09-20T07:19:58.325Z,13.25
2022-09-20T07:22:25.941Z,16.20
2022-09-20T07:24:53.537Z,9.80
2022-09-20T07:27:21.578Z,16.27
2022-09-20T07:29:51.182Z,16.42
2022-09-20T07:32:18.494Z,14.60
2022-09-20T07:34:48.401Z,14.10
2022-09-20T07:37:18.325Z,11.32
2022-09-20T07:39:46.114Z,14.98
2022-09-20T07:42:20.304Z,16.25
2022-09-20T07:44:47.698Z,9.65
2022-09-20T07:47:18.255Z,13.23
2022-09-20T07:49:45.561Z,14.93
2022-09-20T07:52:14.709Z,14.02
2022-09-20T07:54:42.495Z,14.55
2022-09-20T07:57:09.715Z,25.00
2022-09-20T07:59:37.015Z,16.95
2022-09-20T08:02:04.594Z,15.75
2022-09-20T08:04:32.304Z,13.10
2022-09-20T08:07:01.454Z,17.90
2022-09-20T08:09:28.705Z,16.33
2022-09-20T08:11:57.167Z,20.98
2022-09-20T08:14:25.166Z,20.48
2022-09-20T08:16:53.728Z,17.45
2022-09-20T08:19:25.053Z,11.15
2022-09-20T08:21:56.098Z,16.52
2022-09-20T08:24:26.247Z,15.85
2022-09-20T08:26:53.655Z,22.65
2022-09-20T08:29:21.093Z,14.70
2022-09-20T08:31:48.400Z,16.90
2022-09-20T08:34:17.843Z,20.48
2022-09-20T08:36:51.998Z,12.23
2022-09-20T08:42:33.338Z,11.88
2022-09-20T08:45:06.074Z,12.10
2022-09-20T08:48:02.873Z,13.10
2022-09-20T08:50:30.118Z,15.88
2022-09-20T08:53:01.578Z,10.07
2022-09-20T08:55:39.925Z,18.55
2022-09-20T08:58:11.256Z,9.82
2022-09-20T09:00:39.567Z,13.32
2022-09-20T09:03:17.595Z,16.45
2022-09-20T09:05:47.147Z,15.05
2022-09-20T09:08:20.200Z,13.18
2022-09-20T09:10:54.887Z,16.42
2022-09-20T09:13:29.423Z,19.05
2022-09-20T09:16:02.973Z,12.10
2022-09-20T09:18:36.610Z,13.63
2022-09-20T09:21:04.967Z,14.30
2022-09-20T09:23:43.749Z,10.30
2022-09-20T09:26:25.007Z,9.75
2022-09-20T09:29:18.379Z,12.07
2022-09-20T09:31:50.966Z,12.82
2022-09-20T09:34:38.809Z,11.32
2022-09-20T09:37:06.140Z,17.25
2022-09-20T09:39:38.119Z,11.15
2022-09-20T09:42:28.871Z,11.75
2022-09-20T09:45:12.378Z,9.63
2022-09-20T09:47:39.630Z,15.68
2022-09-20T09:50:09.848Z,11.45
2022-09-20T09:52:37.480Z,12.43
2022-09-20T09:55:06.060Z,9.75
2022-09-20T09:57:45.537Z,11.57
2022-09-20T10:00:20.641Z,12.50
2022-09-20T10:02:49.481Z,8.43
2022-09-20T10:05:24.099Z,7.75
2022-09-20T10:08:10.730Z,11.18
2022-09-20T10:11:00.895Z,10.82
2022-09-20T10:13:54.228Z,10.32
2022-09-20T10:16:31.838Z,7.60
2022-09-20T10:19:09.527Z,9.27
2022-09-20T10:21:57.414Z,9.45
2022-09-20T10:24:39.538Z,8.88
2022-09-20T10:27:41.246Z,13.50
2022-09-20T10:30:24.428Z,10.75
2022-09-20T10:32:59.911Z,13.82
2022-09-20T10:35:44.820Z,11.63
2022-09-20T10:38:25.214Z,11.23
2022-09-20T10:41:20.935Z,12.48
2022-09-20T10:44:09.224Z,10.00
2022-09-20T10:46:42.766Z,13.80
2022-09-20T10:49:37.523Z,8.35
2022-09-20T10:52:13.653Z,9.90
2022-09-20T10:54:50.718Z,7.78
2022-09-20T10:57:42.095Z,12.68
2022-09-20T11:00:32.399Z,10.52
2022-09-20T11:03:14.055Z,8.88
2022-09-20T11:05:56.644Z,10.15
2022-09-20T11:08:29.986Z,6.43
2022-09-20T11:11:06.035Z,9.23
2022-09-20T11:13:36.251Z,7.97
2022-09-20T11:16:15.625Z,7.18
2022-09-20T11:19:23.577Z,5.90
2022-09-20T11:22:17.310Z,6.05
2022-09-20T11:25:19.536Z,5.97
2022-09-20T11:28:05.483Z,9.43
2022-09-20T11:30:36.448Z,10.70
2022-09-20T11:33:22.660Z,6.13
2022-09-20T11:35:56.570Z,10.48
2022-09-20T11:38:32.385Z,4.85
2022-09-20T11:41:05.070Z,9.20
2022-09-20T11:43:36.008Z,8.73
2022-09-20T11:46:06.516Z,4.65
2022-09-20T11:48:35.679Z,4.55
2022-09-20T11:51:27.219Z,5.78
2022-09-20T11:54:17.917Z,5.68
2022-09-20T11:56:53.847Z,6.93
2022-09-20T11:59:35.094Z,4.20
2022-09-20T12:02:06.159Z,5.18
2022-09-20T12:04:35.663Z,8.13
2022-09-20T12:07:21.524Z,6.40
2022-09-20T12:10:00.740Z,6.00
2022-09-20T12:15:02.072Z,10.02
2022-09-20T12:17:47.626Z,6.82
2022-09-20T12:20:38.765Z,5.60
2022-09-20T12:23:43.343Z,4.10
2022-09-20T12:26:38.182Z,6.03
2022-09-20T12:29:25.799Z,4.45
2022-09-20T12:31:57.934Z,10.88
2022-09-20T12:34:25.805Z,4.20
2022-09-20T12:36:56.058Z,5.20
2022-09-20T12:39:30.548Z,5.20
2022-09-20T12:42:13.065Z,6.55
2022-09-20T12:45:07.230Z,10.05
2022-09-20T12:47:36.593Z,9.30
2022-09-20T12:50:35.241Z,6.53
2022-09-20T12:53:15.333Z,3.85
2022-09-20T12:55:53.011Z,4.40
2022-09-20T12:58:28.643Z,6.60
2022-09-20T13:01:05.225Z,6.25
2022-09-20T13:03:36.396Z,2.25
2022-09-20T13:06:09.235Z,4.88
2022-09-20T13:09:01.644Z,5.35
2022-09-20T13:11:31.246Z,3.95
2022-09-20T13:13:59.283Z,2.33
2022-09-20T13:16:29.630Z,5.10
2022-09-20T13:19:04.188Z,3.10
2022-09-20T13:21:36.843Z,3.53
2022-09-20T13:24:04.366Z,1.67
2022-09-20T13:26:45.018Z,1.52
2022-09-20T13:29:30.394Z,3.35
2022-09-20T13:32:16.618Z,2.25
2022-09-20T13:34:45.562Z,3.58
2022-09-20T13:37:21.889Z,1.88
2022-09-20T13:39:55.142Z,5.20
2022-09-20T13:42:22.914Z,2.20
2022-09-20T13:44:50.165Z,3.67
2022-09-20T13:47:29.040Z,1.48
2022-09-20T13:50:13.012Z,6.38
2022-09-20T13:52:47.543Z,2.78
2022-09-20T13:55:33.246Z,2.97
2022-09-20T13:58:09.165Z,2.42
2022-09-20T14:00:39.456Z,1.95
2022-09-20T14:03:07.109Z,2.40
2022-09-20T14:05:35.233Z,3.45
2022-09-20T14:08:03.291Z,4.90
2022-09-20T14:10:37.200Z,9.93
2022-09-20T14:13:07.216Z,8.48
2022-09-20T14:15:37.834Z,2.75
2022-09-20T14:18:07.037Z,3.33
2022-09-20T14:20:38.114Z,6.32
2022-09-20T14:23:05.273Z,3.45
2022-09-20T14:25:33.805Z,9.23
2022-09-20T14:28:18.538Z,5.05
2022-09-20T14:30:47.311Z,2.45
2022-09-20T14:33:20.506Z,2.22
2022-09-20T14:35:51.682Z,2.15
2022-09-20T14:38:24.337Z,2.72
2022-09-20T14:40:52.328Z,3.63
2022-09-20T14:43:31.480Z,5.65
2022-09-20T14:46:12.731Z,2.85
2022-09-20T14:48:42.814Z,1.00
2022-09-20T14:51:16.299Z,2.17
2022-09-20T14:53:45.006Z,2.67
2022-09-20T14:56:17.155Z,1.23
2022-09-20T14:59:19.562Z,5.32
2022-09-20T15:01:59.315Z,2.05
2022-09-20T15:04:29.603Z,6.22
2022-09-20T15:07:00.091Z,1.83
2022-09-20T15:09:27.290Z,3.90
2022-09-20T15:12:21.440Z,4.70
2022-09-20T15:14:49.019Z,4.68
2022-09-20T15:17:21.409Z,2.45
2022-09-20T15:19:49.326Z,10.05
2022-09-20T15:22:16.715Z,6.47
2022-09-20T15:24:44.099Z,6.13
2022-09-20T15:27:14.637Z,9.98
2022-09-20T15:29:42.247Z,4.97
2022-09-20T15:32:11.353Z,9.23
2022-09-20T15:34:38.927Z,9.80
2022-09-20T15:37:06.257Z,4.00
2022-09-20T15:39:33.492Z,3.33
2022-09-20T15:42:01.395Z,2.30
2022-09-20T15:44:28.686Z,3.03
2022-09-20T15:46:55.873Z,3.75
2022-09-20T15:49:23.201Z,1.35
2022-09-20T15:51:51.127Z,1.45
2022-09-20T15:54:18.444Z,3.20
2022-09-20T15:56:46.116Z,3.63
2022-09-20T15:59:18.095Z,2.65
2022-09-20T16:01:48.028Z,2.90
2022-09-20T16:04:22.053Z,4.00
2022-09-20T16:06:50.444Z,5.07
2022-09-20T16:09:18.243Z,3.97
2022-09-20T16:11:48.699Z,4.28
2022-09-20T16:14:16.124Z,3.20
2022-09-20T16:16:43.438Z,3.05
2022-09-20T16:19:17.563Z,5.57
2022-09-20T16:21:55.103Z,4.40
2022-09-20T16:24:28.699Z,3.72
2022-09-20T16:26:56.203Z,2.88
2022-09-20T16:29:25.056Z,3.53
2022-09-20T16:31:53.816Z,2.17
2022-09-20T16:34:23.847Z,2.45
2022-09-20T16:36:53.142Z,2.58
2022-09-20T16:41:48.731Z,1.83
2022-09-20T16:44:16.317Z,3.55
2022-09-20T16:46:44.532Z,3.08
2022-09-20T16:49:13.349Z,4.00
2022-09-20T16:51:43.015Z,25.25
2022-09-20T16:54:12.519Z,23.42
2022-09-20T16:56:45.298Z,24.17
2022-09-20T16:59:13.861Z,24.42
2022-09-20T17:01:42.380Z,12.45
2022-09-20T17:04:10.465Z,13.90
2022-09-20T17:06:38.560Z,7.57
2022-09-20T17:09:06.626Z,8.27
2022-09-20T17:11:36.776Z,11.38
2022-09-20T17:14:04.555Z,13.95
2022-09-20T17:16:34.288Z,7.97
2022-09-20T17:19:05.778Z,11.23
2022-09-20T17:21:32.975Z,9.77
2022-09-20T17:24:00.663Z,6.95
2022-09-20T17:26:36.712Z,8.48
2022-09-20T17:29:05.771Z,8.02
2022-09-20T17:31:48.837Z,8.70
2022-09-20T17:34:21.507Z,7.65
2022-09-20T17:36:49.172Z,8.60
2022-09-20T17:39:16.788Z,11.30
2022-09-20T17:41:48.344Z,8.75
2022-09-20T17:44:15.929Z,10.52
2022-09-20T17:46:45.038Z,9.90
2022-09-20T17:49:19.417Z,14.57
2022-09-20T17:51:54.873Z,8.98
2022-09-20T17:54:24.284Z,7.20
2022-09-20T17:56:53.412Z,9.90
2022-09-20T17:59:21.433Z,7.93
2022-09-20T18:01:50.637Z,7.05
2022-09-20T18:04:18.423Z,6.43
2022-09-20T18:06:47.241Z,7.03
2022-09-20T18:09:19.918Z,5.85
2022-09-20T18:11:49.898Z,6.75
2022-09-20T18:14:20.004Z,9.48
2022-09-20T18:16:47.544Z,8.10
2022-09-20T18:19:16.012Z,11.65
2022-09-20T18:21:43.605Z,9.23
2022-09-20T18:24:11.457Z,10.18
2022-09-20T18:26:39.563Z,12.10
2022-09-20T18:29:16.702Z,12.23
2022-09-20T18:31:47.390Z,12.88
2022-09-20T18:34:18.248Z,7.72
2022-09-20T18:36:48.315Z,7.47
2022-09-20T18:39:15.503Z,7.85
2022-09-20T18:41:44.729Z,9.63
2022-09-20T18:44:15.319Z,10.07
2022-09-20T18:46:42.888Z,8.65
2022-09-20T18:49:14.947Z,9.00
2022-09-20T18:51:43.288Z,6.18
2022-09-20T18:54:11.297Z,7.78
2022-09-20T18:56:47.156Z,6.35
2022-09-20T18:59:18.022Z,7.28
2022-09-20T19:01:54.173Z,8.68
2022-09-20T19:04:27.016Z,14.18
2022-09-20T19:07:09.685Z,9.15
2022-09-20T19:09:39.411Z,8.50
2022-09-20T19:12:39.293Z,10.63
2022-09-20T19:15:31.286Z,7.07
2022-09-20T19:18:31.843Z,9.85
2022-09-20T19:21:06.560Z,6.85
2022-09-20T19:23:59.911Z,5.57
2022-09-20T19:26:31.755Z,9.85
2022-09-20T19:29:00.222Z,5.78
2022-09-20T19:31:32.711Z,8.53
2022-09-20T19:34:02.559Z,9.38
2022-09-20T19:36:57.775Z,7.65
2022-09-20T19:39:51.583Z,7.10
2022-09-20T19:42:47.701Z,7.47
2022-09-20T19:45:46.769Z,7.90
2022-09-20T19:48:38.626Z,5.63
2022-09-20T19:51:10.622Z,5.63
2022-09-20T19:53:39.237Z,6.75
2022-09-20T19:56:25.538Z,6.90
2022-09-20T19:58:54.081Z,6.75
2022-09-20T20:01:22.675Z,9.52
2022-09-20T20:03:51.104Z,11.85
2022-09-20T20:06:49.522Z,8.80
2022-09-20T20:09:39.863Z,7.88
2022-09-20T20:12:14.812Z,7.15
2022-09-20T20:14:52.476Z,13.43
2022-09-20T20:17:25.795Z,8.60
2022-09-20T20:20:05.478Z,12.27
2022-09-20T20:22:56.955Z,10.48
2022-09-20T20:25:37.271Z,10.73
2022-09-20T20:28:04.564Z,13.05
2022-09-20T20:30:32.022Z,7.30
2022-09-20T20:32:59.393Z,11.98
2022-09-20T20:35:26.541Z,10.13
2022-09-20T20:37:54.305Z,10.13
2022-09-20T20:40:21.483Z,16.55
2022-09-20T20:42:48.778Z,7.97
2022-09-20T20:45:16.498Z,6.05
2022-09-20T20:47:44.058Z,14.13
2022-09-20T20:50:11.966Z,8.35
2022-09-20T20:52:39.219Z,15.10
2022-09-20T20:55:06.903Z,8.65
2022-09-20T20:57:34.221Z,11.88
2022-09-20T21:00:01.999Z,10.10
2022-09-20T21:02:29.447Z,7.65
2022-09-20T21:04:56.842Z,10.02
2022-09-20T21:07:24.788Z,8.57
2022-09-20T21:09:52.419Z,6.40
2022-09-20T21:12:19.598Z,10.57
2022-09-20T21:14:46.747Z,9.75
2022-09-20T21:17:14.148Z,9.15
2022-09-20T21:19:41.306Z,8.38
2022-09-20T21:22:08.493Z,9.90
2022-09-20T21:24:35.767Z,9.52
2022-09-20T21:27:04.650Z,9.95
2022-09-20T21:29:32.462Z,11.80
2022-09-20T21:31:59.777Z,12.98
2022-09-20T21:34:26.939Z,9.57
2022-09-20T21:36:54.111Z,10.73
2022-09-20T21:39:21.263Z,10.93
2022-09-20T21:41:48.878Z,13.85
2022-09-20T21:44:17.146Z,17.92
2022-09-20T21:46:44.804Z,13.70
2022-09-20T21:49:13.063Z,23.55
2022-09-20T21:51:42.033Z,19.45
2022-09-20T21:54:09.746Z,19.30
2022-09-20T21:56:38.259Z,18.85
2022-09-20T21:59:07.067Z,19.07
2022-09-20T22:01:36.284Z,10.68
2022-09-20T22:04:08.570Z,9.68
2022-09-20T22:06:37.983Z,12.82
2022-09-20T22:09:10.162Z,10.65
2022-09-20T22:11:39.562Z,11.93
2022-09-20T22:16:36.035Z,12.32
2022-09-20T22:19:03.791Z,7.70
2022-09-20T22:21:33.139Z,10.75
2022-09-20T22:26:31.324Z,12.30
2022-09-20T22:28:58.641Z,6.85
2022-09-20T22:31:28.549Z,7.03
2022-09-20T22:33:57.557Z,8.60
2022-09-20T22:36:31.672Z,8.10
2022-09-20T22:38:58.848Z,11.75
2022-09-20T22:41:27.682Z,11.07
2022-09-20T22:43:55.105Z,5.95
2022-09-20T22:46:24.602Z,9.98
2022-09-20T22:48:54.689Z,7.20
2022-09-20T22:51:25.028Z,8.35
2022-09-20T22:53:53.003Z,9.35
2022-09-20T22:56:22.384Z,9.32
2022-09-20T23:01:26.275Z,9.02
2022-09-20T23:04:02.144Z,8.82
2022-09-20T23:06:32.395Z,7.20
2022-09-20T23:09:01.213Z,6.20
2022-09-20T23:11:29.309Z,9.32
2022-09-20T23:13:58.439Z,8.63
2022-09-20T23:16:28.535Z,10.65
2022-09-20T23:18:56.938Z,7.18
2022-09-20T23:21:24.879Z,8.93
2022-09-20T23:23:57.543Z,11.68
2022-09-20T23:26:28.052Z,9.65
2022-09-20T23:29:00.073Z,7.93
2022-09-20T23:31:28.117Z,7.97
2022-09-20T23:33:57.124Z,8.05
2022-09-20T23:36:25.704Z,9.30
2022-09-20T23:38:53.060Z,9.52
2022-09-20T23:41:22.983Z,6.40
2022-09-20T23:43:50.155Z,8.15
2022-09-20T23:46:18.743Z,8.57
2022-09-20T23:48:46.016Z,8.80
2022-09-20T23:51:15.385Z,8.38
2022-09-20T23:56:11.014Z,9.48
2022-09-20T23:58:39.696Z,7.53
